Terminal Aerodrome Forecast
Issued by NWS

Home | Current Version | Previous Version | Text Only | Print | Product List | Glossary On
Versions: 1 2 3 4 5 6 7 8 9 10 11 12 13 14 15
000
FTUS42 KMLB 251126
TAFFPR
TAF
KFPR 251126Z 2512/2612 10004KT P6SM SCT250
     FM251400 16011KT P6SM SCT030
     FM252100 15008KT P6SM VCTS SCT035CB BKN060
     FM260200 22007KT P6SM SCT060 BKN200=

USA.gov is the U.S. government's official web portal to all federal, state and local government web resources and services.